Time;durP1;ratioP1;P1;durP2;ratioP2;P2;SDS_P1;SDS_P2;PMS_P1;PMS_P2;Temp;Humidity;BMP_temperature;BMP_pressure;BME280_temperature;BME280_humidity;BME280_pressure;Samples;Min_cycle;Max_cycle;Signal;HPM_P1;HPM_P2
2023/01/18 00:01:58;;;;;;;9.65;3.58;;;;;;;;;;5052842;28;20651;-49
2023/01/18 00:04:24;;;;;;;6.43;2.95;;;;;;;;;;5054086;28;20564;-49
2023/01/18 00:06:50;;;;;;;7.57;3.17;;;;;;;;;;5053819;28;20449;-51
2023/01/18 00:09:16;;;;;;;6.60;3.38;;;;;;;;;;5053085;28;20043;-50
2023/01/18 00:11:42;;;;;;;7.75;3.15;;;;;;;;;;5054489;28;20051;-50
2023/01/18 00:14:08;;;;;;;8.57;3.50;;;;;;;;;;5053664;28;20509;-49
2023/01/18 00:16:34;;;;;;;8.07;3.83;;;;;;;;;;5052539;28;20443;-52
2023/01/18 00:19:00;;;;;;;6.40;2.75;;;;;;;;;;5053545;28;20040;-51
2023/01/18 00:21:27;;;;;;;7.38;3.15;;;;;;;;;;5053749;28;20394;-51
2023/01/18 00:23:56;;;;;;;6.68;2.97;;;;;;;;;;5054209;28;20040;-50
2023/01/18 00:26:22;;;;;;;5.07;2.67;;;;;;;;;;5053952;28;21143;-48
2023/01/18 00:28:49;;;;;;;11.77;2.72;;;;;;;;;;5053238;28;20051;-52
2023/01/18 00:31:17;;;;;;;5.57;2.88;;;-0.80;99.90;;;;;;5052372;28;20085;-51
2023/01/18 00:33:44;;;;;;;8.73;2.85;;;;;;;;;;5050220;28;20041;-50
2023/01/18 00:36:10;;;;;;;7.00;3.00;;;;;;;;;;5051025;28;20136;-51
2023/01/18 00:38:36;;;;;;;6.05;2.50;;;;;;;;;;5052186;28;20059;-50
2023/01/18 00:41:02;;;;;;;6.93;3.00;;;;;;;;;;5052328;28;20056;-49
2023/01/18 00:43:38;;;;;;;8.77;3.00;;;;;;;;;;5050574;28;20037;-52
2023/01/18 00:46:07;;;;;;;5.57;2.88;;;;;;;;;;5051980;28;20122;-51
2023/01/18 00:48:34;;;;;;;7.05;2.83;;;-0.90;99.90;;;;;;5051231;28;20041;-46
2023/01/18 00:51:00;;;;;;;8.38;3.38;;;;;;;;;;5054128;28;20037;-49
2023/01/18 00:53:27;;;;;;;8.27;2.85;;;;;;;;;;5055365;28;20087;-47
2023/01/18 00:55:53;;;;;;;6.38;3.00;;;;;;;;;;5056456;28;20044;-51
2023/01/18 00:58:19;;;;;;;6.68;2.60;;;;;;;;;;5054936;28;20041;-50
2023/01/18 01:00:46;;;;;;;7.10;3.25;;;;;;;;;;5055417;28;20064;-50
2023/01/18 01:03:13;;;;;;;6.22;3.15;;;;;;;;;;5054510;28;20421;-48
2023/01/18 01:08:24;;;;;;;8.77;3.25;;;;;;;;;;5055487;28;20040;-49
2023/01/18 01:10:52;;;;;;;6.55;3.22;;;;;;;;;;5055520;28;20375;-50
2023/01/18 01:27:11;;;;;;;7.00;3.53;;;;;;;;;;5054034;28;20048;-47
2023/01/18 01:29:37;;;;;;;9.45;3.60;;;;;;;;;;5054865;28;20064;-48
2023/01/18 01:32:04;;;;;;;7.43;3.28;;;;;;;;;;5054149;28;20083;-47
2023/01/18 01:34:30;;;;;;;7.50;3.20;;;;;;;;;;5055085;28;20036;-50
2023/01/18 01:36:57;;;;;;;8.18;3.47;;;;;;;;;;5056087;28;21101;-48
2023/01/18 01:39:23;;;;;;;7.05;2.65;;;;;;;;;;5056283;28;20110;-49
2023/01/18 01:41:49;;;;;;;10.60;3.40;;;;;;;;;;5057123;28;20060;-49
2023/01/18 01:44:23;;;;;;;9.40;3.60;;;;;;;;;;5055428;28;20047;-50
2023/01/18 01:47:09;;;;;;;7.60;3.10;;;;;;;;;;5055633;28;20054;-49
2023/01/18 01:49:39;;;;;;;8.68;2.70;;;-1.00;99.90;;;;;;5055384;28;20044;-53
2023/01/18 01:52:11;;;;;;;6.80;2.83;;;-0.80;99.90;;;;;;5055427;28;20041;-50
2023/01/18 01:54:42;;;;;;;6.10;3.08;;;-0.90;99.90;;;;;;5055379;28;20056;-49
2023/01/18 01:57:17;;;;;;;5.55;2.70;;;-0.90;99.90;;;;;;5054270;28;20548;-49
2023/01/18 01:59:48;;;;;;;9.40;3.15;;;-0.90;99.90;;;;;;5054371;28;20037;-49
2023/01/18 02:02:14;;;;;;;7.93;2.90;;;;;;;;;;5054152;28;20569;-49
2023/01/18 02:04:43;;;;;;;6.95;2.80;;;;;;;;;;5053741;28;20283;-52
2023/01/18 02:07:09;;;;;;;7.13;3.33;;;;;;;;;;5053832;28;20148;-49
2023/01/18 02:09:36;;;;;;;9.25;2.72;;;;;;;;;;5053725;28;21617;-52
2023/01/18 02:12:02;;;;;;;7.45;2.50;;;;;;;;;;5055365;28;20596;-49
2023/01/18 02:14:29;;;;;;;4.88;2.47;;;-0.90;99.90;;;;;;5052929;28;20042;-49
2023/01/18 02:17:04;;;;;;;5.63;2.90;;;;;;;;;;5053432;28;20565;-49
2023/01/18 02:19:30;;;;;;;5.35;2.83;;;;;;;;;;5053400;28;20048;-51
2023/01/18 02:22:22;;;;;;;6.85;2.45;;;-1.00;99.90;;;;;;5053692;28;20077;-50
2023/01/18 02:25:06;;;;;;;10.98;2.50;;;;;;;;;;5053093;28;20064;-48
2023/01/18 02:27:42;;;;;;;6.45;2.35;;;;;;;;;;5052009;28;20037;-51
2023/01/18 02:30:25;;;;;;;6.85;2.03;;;-1.00;99.90;;;;;;5052972;28;20049;-48
2023/01/18 02:33:04;;;;;;;9.38;2.42;;;;;;;;;;5053087;28;20353;-50
2023/01/18 02:35:37;;;;;;;5.82;2.53;;;;;;;;;;5054246;28;20048;-49
2023/01/18 02:38:14;;;;;;;5.78;2.72;;;-1.10;99.90;;;;;;5054330;28;20159;-50
2023/01/18 02:40:59;;;;;;;7.53;2.85;;;;;;;;;;5053526;28;20060;-49
2023/01/18 02:46:32;;;;;;;6.95;3.10;;;;;;;;;;5053780;28;20528;-49
2023/01/18 02:49:04;;;;;;;8.25;3.80;;;;;;;;;;5053703;28;20056;-50
2023/01/18 02:51:30;;;;;;;8.30;3.90;;;;;;;;;;5055191;28;20448;-50
2023/01/18 02:53:57;;;;;;;7.15;3.70;;;;;;;;;;5055462;28;20052;-53
2023/01/18 02:56:26;;;;;;;10.05;3.72;;;;;;;;;;5054262;28;20052;-50
2023/01/18 02:58:55;;;;;;;7.07;3.45;;;;;;;;;;5053831;28;20047;-49
2023/01/18 03:01:40;;;;;;;7.93;4.25;;;;;;;;;;5053418;28;20032;-51
2023/01/18 03:04:27;;;;;;;8.80;3.63;;;;;;;;;;5053550;28;20098;-50
2023/01/18 03:07:25;;;;;;;7.15;3.70;;;;;;;;;;5053808;28;20056;-52
2023/01/18 03:09:52;;;;;;;7.78;3.10;;;;;;;;;;5021544;28;20044;-52
2023/01/18 03:12:19;;;;;;;8.55;3.38;;;;;;;;;;5053359;28;20436;-51
2023/01/18 03:14:57;;;;;;;6.97;3.00;;;;;;;;;;5053248;28;20503;-51
2023/01/18 03:17:35;;;;;;;9.85;3.55;;;;;;;;;;5051502;28;20401;-51
2023/01/18 03:20:02;;;;;;;7.10;3.40;;;;;;;;;;5053032;28;20157;-50
2023/01/18 03:25:19;;;;;;;7.93;3.58;;;;;;;;;;5052295;28;20044;-51
2023/01/18 03:36:05;;;;;;;8.70;3.65;;;;;;;;;;5052585;28;20044;-49
2023/01/18 03:38:33;;;;;;;6.80;3.58;;;-1.90;99.90;;;;;;5051966;28;20052;-50
2023/01/18 03:40:59;;;;;;;10.27;4.13;;;;;;;;;;5052745;28;20060;-49
2023/01/18 03:43:26;;;;;;;6.75;3.97;;;;;;;;;;5053073;28;20102;-49
2023/01/18 03:45:54;;;;;;;8.40;4.03;;;-2.00;99.90;;;;;;5051752;28;20078;-49
2023/01/18 03:48:20;;;;;;;11.32;3.92;;;;;;;;;;5051204;28;20063;-48
2023/01/18 03:50:55;;;;;;;10.85;4.43;;;;;;;;;;5051458;28;20045;-50
2023/01/18 03:53:37;;;;;;;7.25;4.30;;;;;;;;;;5051518;28;20095;-51
2023/01/18 03:56:24;;;;;;;7.60;4.50;;;;;;;;;;5051865;28;20128;-51
2023/01/18 03:58:51;;;;;;;9.38;4.80;;;;;;;;;;5051356;28;20292;-50
2023/01/18 04:01:17;;;;;;;8.15;4.57;;;;;;;;;;5052594;28;20196;-51
2023/01/18 04:03:43;;;;;;;9.30;4.93;;;;;;;;;;5052039;28;20048;-48
2023/01/18 04:06:09;;;;;;;7.00;4.60;;;;;;;;;;5051373;28;20729;-51
2023/01/18 04:08:35;;;;;;;9.73;5.30;;;;;;;;;;5051303;28;20094;-46
2023/01/18 04:11:02;;;;;;;8.70;5.18;;;;;;;;;;5054207;28;20123;-48
2023/01/18 04:13:28;;;;;;;13.68;5.45;;;;;;;;;;5053137;28;20045;-49
2023/01/18 04:15:54;;;;;;;7.72;4.63;;;;;;;;;;5053097;28;20083;-50
2023/01/18 04:18:20;;;;;;;7.40;4.50;;;;;;;;;;5052575;28;20409;-48
2023/01/18 04:20:47;;;;;;;8.93;4.25;;;;;;;;;;5054193;28;20033;-48
2023/01/18 04:23:14;;;;;;;10.35;4.47;;;;;;;;;;5053369;28;20044;-50
2023/01/18 04:25:44;;;;;;;15.70;5.35;;;;;;;;;;5057023;28;20162;-50
2023/01/18 04:28:10;;;;;;;9.65;4.97;;;;;;;;;;5056972;28;20064;-49
2023/01/18 04:30:36;;;;;;;8.88;4.85;;;;;;;;;;5068720;28;20047;-51
2023/01/18 04:33:03;;;;;;;12.55;4.85;;;;;;;;;;5054483;28;20044;-51
2023/01/18 04:35:29;;;;;;;8.30;4.60;;;;;;;;;;5055662;28;20417;-50
2023/01/18 04:37:55;;;;;;;13.35;5.53;;;;;;;;;;5054849;28;20676;-47
2023/01/18 04:40:21;;;;;;;10.07;4.60;;;;;;;;;;5055361;28;20507;-50
2023/01/18 04:42:53;;;;;;;7.97;4.47;;;;;;;;;;5056078;28;20048;-50
2023/01/18 04:45:20;;;;;;;9.25;5.00;;;;;;;;;;5055317;28;20063;-49
2023/01/18 04:47:46;;;;;;;8.68;4.93;;;;;;;;;;5054421;28;20040;-51
2023/01/18 04:50:13;;;;;;;9.05;5.03;;;;;;;;;;5055709;28;20137;-48
2023/01/18 04:52:39;;;;;;;7.85;4.38;;;;;;;;;;5056242;28;20055;-49
2023/01/18 04:55:05;;;;;;;9.35;4.72;;;;;;;;;;5056308;28;20062;-49
2023/01/18 04:57:31;;;;;;;10.00;5.45;;;;;;;;;;5056131;28;20037;-49
2023/01/18 04:59:59;;;;;;;9.68;4.28;;;;;;;;;;5055572;28;20386;-49
2023/01/18 05:02:25;;;;;;;8.55;4.35;;;;;;;;;;5054713;28;20072;-48
2023/01/18 05:04:51;;;;;;;10.32;5.22;;;;;;;;;;5056466;28;20048;-49
2023/01/18 05:07:17;;;;;;;14.25;6.93;;;;;;;;;;5055642;28;20439;-50
2023/01/18 05:09:43;;;;;;;9.55;5.28;;;;;;;;;;5055429;28;20331;-49
2023/01/18 05:12:09;;;;;;;9.13;5.18;;;;;;;;;;5056066;28;20644;-49
2023/01/18 05:14:35;;;;;;;13.13;6.43;;;;;;;;;;5055708;28;20119;-50
2023/01/18 05:17:01;;;;;;;12.35;6.30;;;;;;;;;;5055191;28;20250;-50
2023/01/18 05:19:29;;;;;;;10.02;6.15;;;;;;;;;;5055474;28;20037;-49
2023/01/18 05:21:55;;;;;;;10.73;6.32;;;;;;;;;;5055758;28;20044;-49
2023/01/18 05:24:21;;;;;;;10.63;6.75;;;;;;;;;;5055445;28;20044;-50
2023/01/18 05:26:47;;;;;;;11.93;6.72;;;;;;;;;;5056425;28;20072;-50
2023/01/18 05:29:13;;;;;;;10.77;7.13;;;;;;;;;;5056230;28;20685;-48
2023/01/18 05:31:40;;;;;;;13.93;6.97;;;;;;;;;;5057251;28;20124;-48
2023/01/18 05:34:06;;;;;;;17.33;7.20;;;;;;;;;;5056108;28;20049;-49
2023/01/18 05:36:32;;;;;;;11.93;7.28;;;;;;;;;;5055896;28;20133;-50
2023/01/18 05:38:59;;;;;;;13.13;7.18;;;;;;;;;;5055787;28;20048;-49
2023/01/18 05:41:25;;;;;;;12.23;6.53;;;;;;;;;;5056125;28;20751;-51
2023/01/18 05:43:51;;;;;;;14.25;6.97;;;;;;;;;;5055612;28;20071;-48
2023/01/18 05:46:17;;;;;;;10.57;6.80;;;;;;;;;;5055842;28;20105;-50
2023/01/18 05:48:43;;;;;;;14.13;7.75;;;;;;;;;;5055550;28;20040;-50
2023/01/18 05:51:10;;;;;;;12.95;7.18;;;;;;;;;;5055734;28;20047;-49
2023/01/18 05:53:36;;;;;;;11.55;7.45;;;;;;;;;;5055510;28;20044;-49
2023/01/18 05:56:04;;;;;;;11.80;6.85;;;;;;;;;;5055891;28;20040;-51
2023/01/18 05:58:31;;;;;;;11.25;7.55;;;;;;;;;;5055773;28;20513;-48
2023/01/18 06:00:57;;;;;;;15.05;7.10;;;;;;;;;;5052958;28;20393;-50
2023/01/18 06:03:24;;;;;;;12.82;7.10;;;;;;;;;;5054077;28;20448;-50
2023/01/18 06:05:50;;;;;;;11.98;8.13;;;;;;;;;;5054637;28;20070;-49
2023/01/18 06:08:17;;;;;;;16.10;8.43;;;;;;;;;;5055102;28;20046;-48
2023/01/18 06:10:43;;;;;;;12.43;7.88;;;;;;;;;;5053851;28;20119;-50
2023/01/18 06:13:09;;;;;;;14.88;7.70;;;;;;;;;;5054917;28;20067;-49
2023/01/18 06:15:35;;;;;;;13.93;7.82;;;;;;;;;;5053376;28;20032;-49
2023/01/18 06:18:02;;;;;;;13.60;8.02;;;;;;;;;;5053956;28;20123;-49
2023/01/18 06:20:29;;;;;;;14.25;8.02;;;;;;;;;;5054239;28;20132;-57
2023/01/18 06:22:58;;;;;;;14.82;8.35;;;;;;;;;;5054715;28;20043;-49
2023/01/18 06:25:25;;;;;;;16.55;7.57;;;;;;;;;;5054125;28;20111;-48
2023/01/18 06:27:51;;;;;;;16.55;7.95;;;;;;;;;;5053922;28;20047;-52
2023/01/18 06:30:17;;;;;;;11.98;7.57;;;;;;;;;;5053381;28;20044;-52
2023/01/18 06:32:43;;;;;;;10.50;7.32;;;;;;;;;;5052752;28;20036;-49
2023/01/18 06:35:09;;;;;;;12.95;7.85;;;;;;;;;;5053726;28;20044;-48
2023/01/18 06:37:36;;;;;;;13.20;8.10;;;;;;;;;;5053726;28;20474;-49
2023/01/18 06:40:02;;;;;;;15.45;7.68;;;;;;;;;;5052968;28;20056;-47
2023/01/18 06:42:28;;;;;;;14.45;8.18;;;;;;;;;;5054910;28;20041;-49
2023/01/18 06:44:54;;;;;;;12.65;8.48;;;;;;;;;;5054254;28;20365;-48
2023/01/18 06:47:20;;;;;;;14.80;8.32;;;;;;;;;;5053399;28;20052;-46
2023/01/18 06:49:47;;;;;;;14.32;7.55;;;;;;;;;;5053878;28;20465;-46
2023/01/18 06:52:13;;;;;;;12.52;7.72;;;;;;;;;;5053781;28;20529;-46
2023/01/18 06:54:39;;;;;;;12.18;7.35;;;;;;;;;;5055931;28;20037;-49
2023/01/18 06:57:05;;;;;;;12.40;7.47;;;;;;;;;;5055022;28;20052;-46
2023/01/18 06:59:31;;;;;;;14.35;7.95;;;;;;;;;;5055818;28;20032;-46
2023/01/18 07:01:57;;;;;;;16.00;8.23;;;;;;;;;;5054947;28;20244;-50
2023/01/18 07:04:24;;;;;;;14.77;7.50;;;;;;;;;;5055773;28;20072;-50
2023/01/18 07:06:50;;;;;;;13.93;7.75;;;;;;;;;;5055153;28;20041;-48
2023/01/18 07:09:16;;;;;;;12.20;7.93;;;;;;;;;;5054918;28;20111;-50
2023/01/18 07:11:42;;;;;;;12.75;7.65;;;;;;;;;;5055021;28;20043;-50
2023/01/18 07:14:12;;;;;;;11.68;7.63;;;;;;;;;;5054864;28;20123;-49
2023/01/18 07:16:38;;;;;;;11.10;7.22;;;;;;;;;;5055361;28;20418;-48
2023/01/18 07:19:04;;;;;;;15.63;8.10;;;;;;;;;;5055388;28;20045;-49
2023/01/18 07:21:31;;;;;;;17.60;8.70;;;;;;;;;;5053539;28;20053;-48
2023/01/18 07:23:58;;;;;;;15.10;7.78;;;;;;;;;;5054146;28;20041;-49
2023/01/18 07:26:24;;;;;;;14.70;8.43;;;;;;;;;;5052755;28;20052;-48
2023/01/18 07:28:51;;;;;;;16.40;8.93;;;;;;;;;;5052953;28;21371;-51
2023/01/18 07:31:19;;;;;;;19.85;9.27;;;;;;;;;;5053665;28;20047;-49
2023/01/18 07:33:45;;;;;;;14.07;8.30;;;;;;;;;;5053040;28;20044;-50
2023/01/18 07:36:12;;;;;;;10.45;6.65;;;;;;;;;;5051976;28;20173;-49
2023/01/18 07:38:39;;;;;;;15.38;7.75;;;;;;;;;;5052509;28;20044;-48
2023/01/18 07:41:10;;;;;;;15.80;8.35;;;;;;;;;;5052634;28;20105;-49
2023/01/18 07:43:38;;;;;;;12.60;7.22;;;;;;;;;;5052628;28;20064;-49
2023/01/18 07:46:05;;;;;;;15.93;8.50;;;;;;;;;;5052582;28;22070;-50
2023/01/18 07:48:31;;;;;;;15.63;8.05;;;;;;;;;;5052065;28;20048;-49
2023/01/18 07:50:59;;;;;;;13.40;6.80;;;;;;;;;;5052035;28;20056;-49
2023/01/18 07:53:25;;;;;;;14.15;8.30;;;;;;;;;;5051258;28;20524;-50
2023/01/18 07:55:52;;;;;;;13.82;7.75;;;;;;;;;;5051299;28;20044;-51
2023/01/18 07:58:18;;;;;;;14.00;7.22;;;;;;;;;;5052203;28;20036;-49
2023/01/18 08:00:44;;;;;;;12.02;6.97;;;;;;;;;;5052086;28;20046;-50
2023/01/18 08:03:13;;;;;;;12.38;7.60;;;;;;;;;;5050840;28;20040;-49
2023/01/18 08:05:39;;;;;;;15.05;7.35;;;;;;;;;;5052412;28;20044;-51
2023/01/18 08:08:07;;;;;;;13.88;8.48;;;;;;;;;;5051976;28;20055;-51
2023/01/18 08:10:34;;;;;;;13.70;7.30;;;;;;;;;;5051635;28;20097;-50
2023/01/18 08:13:00;;;;;;;12.73;7.40;;;;;;;;;;5053353;28;20059;-50
2023/01/18 08:15:26;;;;;;;14.07;6.93;;;;;;;;;;5052837;28;20036;-47
2023/01/18 08:17:54;;;;;;;11.35;6.85;;;;;;;;;;5052267;28;20044;-48
2023/01/18 08:20:22;;;;;;;13.48;6.43;;;;;;;;;;5053095;28;20144;-50
2023/01/18 08:22:54;;;;;;;15.75;7.10;;;;;;;;;;5052661;28;20044;-45
2023/01/18 08:25:20;;;;;;;13.15;7.15;;;;;;;;;;5053070;28;20090;-49
2023/01/18 08:27:47;;;;;;;13.05;6.70;;;;;;;;;;5053625;28;20037;-50
2023/01/18 08:30:13;;;;;;;17.92;6.88;;;;;;;;;;5053038;28;20045;-49
2023/01/18 08:32:39;;;;;;;10.88;6.13;;;;;;;;;;5052153;28;20037;-50
2023/01/18 08:35:06;;;;;;;11.32;5.78;;;;;;;;;;5053510;28;20685;-49
2023/01/18 08:37:32;;;;;;;13.23;5.90;;;;;;;;;;5052609;28;20060;-49
2023/01/18 08:39:58;;;;;;;8.88;5.68;;;;;;;;;;5052842;28;20449;-49
2023/01/18 08:42:25;;;;;;;11.25;5.57;;;;;;;;;;5052511;28;20043;-50
2023/01/18 08:44:52;;;;;;;10.77;5.38;;;;;;;;;;5051663;28;20058;-48
2023/01/18 08:47:18;;;;;;;10.52;6.10;;;;;;;;;;5051263;28;20048;-46
2023/01/18 08:49:45;;;;;;;14.05;6.15;;;;;;;;;;5052578;28;20087;-49
2023/01/18 08:52:14;;;;;;;12.13;6.00;;;;;;;;;;5052201;28;20536;-49
2023/01/18 08:54:40;;;;;;;15.07;6.07;;;;;;;;;;5051221;28;20060;-50
2023/01/18 08:57:08;;;;;;;12.10;5.72;;;;;;;;;;5051036;28;20048;-48
2023/01/18 08:59:34;;;;;;;9.13;5.22;;;;;;;;;;5051690;28;20432;-51
2023/01/18 09:02:00;;;;;;;10.25;4.70;;;;;;;;;;5051159;28;20049;-47
2023/01/18 09:04:28;;;;;;;10.48;5.30;;;3.90;99.90;;;;;;5051101;28;20072;-50
2023/01/18 09:06:54;;;;;;;11.30;5.10;;;;;;;;;;5052111;28;20036;-48
2023/01/18 09:09:20;;;;;;;9.27;5.20;;;;;;;;;;5051015;28;20040;-47
2023/01/18 09:11:50;;;;;;;11.77;5.60;;;5.40;99.90;;;;;;5054313;28;20037;-51
2023/01/18 09:14:16;;;;;;;10.20;4.90;;;;;;;;;;5055047;28;20041;-51
2023/01/18 09:16:42;;;;;;;8.75;5.15;;;;;;;;;;5055182;28;20704;-50
2023/01/18 09:19:08;;;;;;;11.63;4.68;;;;;;;;;;5055111;28;20430;-50
2023/01/18 09:21:35;;;;;;;9.55;4.93;;;;;;;;;;5053287;28;20080;-50
2023/01/18 09:24:01;;;;;;;9.93;4.90;;;;;;;;;;5052810;28;20052;-50
2023/01/18 09:26:29;;;;;;;8.40;4.75;;;5.40;99.90;;;;;;5053180;28;20040;-50
2023/01/18 09:28:55;;;;;;;10.82;4.90;;;;;;;;;;5054229;28;20508;-47
2023/01/18 09:31:23;;;;;;;9.32;5.00;;;4.90;99.90;;;;;;5054961;28;20083;-51
2023/01/18 09:33:49;;;;;;;10.85;5.00;;;;;;;;;;5054087;28;20189;-49
2023/01/18 09:36:17;;;;;;;10.75;5.82;;;;;;;;;;5054555;28;20079;-49
2023/01/18 09:38:44;;;;;;;9.65;4.97;;;;;;;;;;5053492;28;20063;-48
2023/01/18 09:41:38;;;;;;;8.27;4.90;;;5.20;99.90;;;;;;5055312;28;20119;-48
2023/01/18 09:44:06;;;;;;;9.82;4.90;;;5.00;99.90;;;;;;5056043;28;20044;-50
2023/01/18 09:46:36;;;;;;;9.85;4.93;;;4.90;99.90;;;;;;5055387;28;20824;-50
2023/01/18 09:49:05;;;;;;;9.52;4.78;;;4.90;99.90;;;;;;5055393;28;20036;-50
2023/01/18 09:52:12;;;;;;;7.00;4.32;;;4.70;99.90;;;;;;5055021;28;20052;-49
2023/01/18 09:55:07;;;;;;;12.05;4.88;;;4.30;99.90;;;;;;5030268;28;20049;-48
2023/01/18 09:57:33;;;;;;;9.88;5.03;;;;;;;;;;5055070;28;20500;-49
2023/01/18 10:00:03;;;;;;;10.80;4.57;;;4.20;99.90;;;;;;5055368;28;20051;-49
2023/01/18 10:02:39;;;;;;;11.95;5.22;;;4.60;99.90;;;;;;5053360;28;21188;-45
2023/01/18 10:05:12;;;;;;;10.00;4.45;;;4.90;99.90;;;;;;5055036;28;20207;-51
2023/01/18 10:08:02;;;;;;;9.40;4.45;;;5.00;99.90;;;;;;5053967;28;20040;-50
2023/01/18 10:10:51;;;;;;;8.65;4.38;;;5.40;99.90;;;;;;5052270;28;20037;-48
2023/01/18 10:13:17;;;;;;;9.10;4.72;;;;;;;;;;5054042;28;20493;-48
2023/01/18 10:15:43;;;;;;;10.32;4.55;;;;;;;;;;5053853;28;20536;-51
2023/01/18 10:18:10;;;;;;;9.15;4.60;;;;;;;;;;5053125;28;20047;-49
2023/01/18 10:20:48;;;;;;;8.57;4.60;;;6.00;99.90;;;;;;5054115;28;20049;-50
2023/01/18 10:23:15;;;;;;;13.88;4.65;;;;;;;;;;5053679;28;20465;-50
2023/01/18 10:25:41;;;;;;;8.07;4.47;;;;;;;;;;5053639;28;20047;-49
2023/01/18 10:28:26;;;;;;;9.30;5.18;;;5.00;99.90;;;;;;5053917;28;20040;-51
2023/01/18 10:30:55;;;;;;;9.98;4.72;;;4.40;99.90;;;;;;5054082;28;20059;-50
2023/01/18 10:33:24;;;;;;;11.13;4.90;;;3.90;99.90;;;;;;5052022;28;20087;-46
2023/01/18 10:35:54;;;;;;;9.82;4.13;;;3.70;99.90;;;;;;5053162;28;20032;-47
2023/01/18 10:38:24;;;;;;;12.35;5.85;;;3.30;99.90;;;;;;5052590;28;20048;-50
2023/01/18 10:41:00;;;;;;;8.68;4.93;;;3.20;99.90;;;;;;5052465;28;20071;-51
2023/01/18 10:43:30;;;;;;;16.60;6.55;;;3.00;99.90;;;;;;5053223;28;20036;-50
2023/01/18 10:45:57;;;;;;;10.82;5.45;;;;;;;;;;5053221;28;20044;-49
2023/01/18 10:48:30;;;;;;;8.63;4.75;;;2.80;99.90;;;;;;5052711;28;20048;-49
2023/01/18 10:51:02;;;;;;;8.55;4.97;;;2.90;99.90;;;;;;5053336;28;20056;-51
2023/01/18 10:53:34;;;;;;;12.02;4.97;;;2.90;99.90;;;;;;5052992;28;20123;-49
2023/01/18 10:56:04;;;;;;;13.27;4.88;;;2.90;99.90;;;;;;5052391;28;20052;-50
2023/01/18 10:58:39;;;;;;;8.18;5.20;;;2.80;99.90;;;;;;5051867;28;20046;-51
2023/01/18 11:01:18;;;;;;;9.30;4.85;;;2.80;99.90;;;;;;5052664;28;20055;-50
2023/01/18 11:03:58;;;;;;;14.55;6.20;;;2.80;99.90;;;;;;5052143;28;20128;-52
2023/01/18 11:06:25;;;;;;;8.50;4.50;;;;;;;;;;5053970;28;20049;-51
2023/01/18 11:08:52;;;;;;;7.80;4.40;;;3.00;99.90;;;;;;5053386;28;20052;-52
2023/01/18 11:14:29;;;;;;;10.40;4.20;;;3.00;99.90;;;;;;5053204;28;20048;-51
2023/01/18 11:17:10;;;;;;;11.90;4.85;;;3.10;99.90;;;;;;5053289;28;21109;-52
2023/01/18 11:19:37;;;;;;;12.98;5.13;;;3.10;99.90;;;;;;5053708;28;20444;-49
2023/01/18 11:22:09;;;;;;;9.25;4.50;;;3.10;99.90;;;;;;5052911;28;20102;-52
2023/01/18 11:24:36;;;;;;;12.55;4.82;;;;;;;;;;5052684;28;20186;-52
2023/01/18 11:27:13;;;;;;;8.70;4.35;;;;;;;;;;5052942;28;20047;-51
2023/01/18 11:29:44;;;;;;;10.38;5.50;;;3.10;99.90;;;;;;5052132;28;20177;-51
2023/01/18 11:32:23;;;;;;;13.68;6.28;;;3.00;99.90;;;;;;5051493;28;20201;-47
2023/01/18 11:34:53;;;;;;;14.27;6.32;;;3.10;99.90;;;;;;5051154;28;20486;-50
2023/01/18 11:37:29;;;;;;;11.63;5.32;;;3.30;99.90;;;;;;5052130;28;20049;-50
2023/01/18 11:39:56;;;;;;;11.13;5.10;;;;;;;;;;5051104;28;20048;-49
2023/01/18 11:42:22;;;;;;;8.90;4.63;;;;;;;;;;5052288;28;20527;-48
2023/01/18 11:44:48;;;;;;;10.13;4.60;;;;;;;;;;5052394;28;20044;-49
2023/01/18 11:47:26;;;;;;;9.70;4.93;;;3.20;99.90;;;;;;5051153;28;20531;-51
2023/01/18 11:50:34;;;;;;;7.57;4.10;;;3.20;99.90;;;;;;5052413;28;20043;-47
2023/01/18 11:53:13;;;;;;;7.60;4.18;;;3.30;99.90;;;;;;5051374;28;20052;-52
2023/01/18 11:55:54;;;;;;;10.40;5.20;;;3.40;99.90;;;;;;5051259;28;20128;-52
2023/01/18 11:58:28;;;;;;;10.65;4.82;;;3.40;99.90;;;;;;5052066;28;20119;-47
2023/01/18 12:01:09;;;;;;;12.43;4.70;;;3.50;99.90;;;;;;5051315;28;20121;-49
2023/01/18 12:03:53;;;;;;;8.60;4.60;;;3.40;99.90;;;;;;5051550;28;20239;-51
2023/01/18 12:06:35;;;;;;;9.15;4.57;;;3.60;99.90;;;;;;5051829;28;20052;-53
2023/01/18 12:09:26;;;;;;;8.90;4.70;;;3.30;99.90;;;;;;5051345;28;20470;-51
2023/01/18 12:11:52;;;;;;;12.02;4.43;;;;;;;;;;5051860;28;20087;-49
2023/01/18 12:14:44;;;;;;;12.60;5.45;;;3.20;99.90;;;;;;5052915;28;20048;-48
2023/01/18 12:17:25;;;;;;;7.50;3.97;;;3.40;99.90;;;;;;5051436;28;20044;-49
2023/01/18 12:20:21;;;;;;;7.65;3.85;;;3.30;99.90;;;;;;5052282;28;20107;-47
2023/01/18 12:22:56;;;;;;;7.95;3.72;;;3.40;99.90;;;;;;5054304;28;20043;-52
2023/01/18 12:25:25;;;;;;;10.25;3.80;;;3.40;99.90;;;;;;5053277;28;20033;-50
2023/01/18 12:27:51;;;;;;;10.88;3.63;;;;;;;;;;5052427;28;20583;-51
2023/01/18 12:30:17;;;;;;;9.60;3.83;;;;;;;;;;5053268;28;20093;-50
2023/01/18 12:32:46;;;;;;;13.20;4.43;;;3.70;99.90;;;;;;5052501;28;20110;-48
2023/01/18 12:35:15;;;;;;;10.88;4.03;;;;;;;;;;5053182;28;20098;-48
2023/01/18 12:38:08;;;;;;;8.88;3.63;;;3.70;99.90;;;;;;5053303;28;20086;-51
2023/01/18 12:40:42;;;;;;;9.48;4.07;;;3.60;99.90;;;;;;5053116;28;20581;-50
2023/01/18 12:43:42;;;;;;;7.93;3.60;;;3.90;99.90;;;;;;5054887;28;20049;-49
2023/01/18 12:46:17;;;;;;;8.90;4.38;;;3.80;99.90;;;;;;5057280;28;20508;-50
2023/01/18 12:48:56;;;;;;;9.20;4.28;;;3.90;99.90;;;;;;5056599;28;20528;-52
2023/01/18 12:51:26;;;;;;;9.20;3.63;;;3.90;99.90;;;;;;5056557;28;20131;-50
2023/01/18 12:53:52;;;;;;;8.38;3.88;;;;;;;;;;5057345;28;20075;-51
2023/01/18 12:56:28;;;;;;;9.40;3.72;;;3.90;99.90;;;;;;5057287;28;20152;-47
2023/01/18 12:59:03;;;;;;;7.93;3.17;;;3.70;99.90;;;;;;5055797;28;20050;-52
2023/01/18 13:01:37;;;;;;;7.60;3.25;;;3.70;99.90;;;;;;5055286;28;20408;-50
2023/01/18 13:04:19;;;;;;;9.50;3.40;;;3.70;99.90;;;;;;5054104;28;20138;-51
2023/01/18 13:06:49;;;;;;;10.32;4.05;;;3.70;99.90;;;;;;5056044;28;20123;-48
2023/01/18 13:09:24;;;;;;;8.18;3.15;;;3.60;99.90;;;;;;5054084;28;20044;-48
2023/01/18 13:11:51;;;;;;;9.57;4.20;;;;;;;;;;5055523;28;20082;-53
2023/01/18 13:14:39;;;;;;;7.70;3.65;;;3.60;99.90;;;;;;5055687;28;20140;-51
2023/01/18 13:17:19;;;;;;;9.23;3.22;;;3.60;99.90;;;;;;5054975;28;20523;-51
2023/01/18 13:19:45;;;;;;;12.88;5.53;;;;;;;;;;5055639;28;20040;-51
2023/01/18 13:22:34;;;;;;;10.57;4.22;;;3.70;99.90;;;;;;5054767;28;20691;-49
2023/01/18 13:25:15;;;;;;;8.75;4.13;;;3.60;99.90;;;;;;5055033;28;20044;-51
2023/01/18 13:28:04;;;;;;;8.45;3.50;;;3.60;99.90;;;;;;5054851;28;20520;-53
2023/01/18 13:30:33;;;;;;;12.65;3.88;;;3.50;99.90;;;;;;5054700;28;20037;-49
2023/01/18 13:33:00;;;;;;;9.70;3.45;;;;;;;;;;5054749;28;20048;-52
2023/01/18 13:35:34;;;;;;;9.15;4.30;;;3.50;99.90;;;;;;5053873;28;20119;-51
2023/01/18 13:38:12;;;;;;;10.23;3.80;;;3.50;99.90;;;;;;5055193;28;20063;-52
2023/01/18 13:40:39;;;;;;;11.20;3.58;;;;;;;;;;5053147;28;20052;-52
2023/01/18 13:43:25;;;;;;;11.43;3.88;;;3.40;99.90;;;;;;5056850;28;20040;-52
2023/01/18 13:46:14;;;;;;;10.48;4.18;;;3.40;99.90;;;;;;5055939;28;20097;-52
2023/01/18 13:49:19;;;;;;;10.75;3.75;;;3.50;99.90;;;;;;5055089;28;20158;-53
2023/01/18 13:51:46;;;;;;;11.38;3.65;;;;;;;;;;5055418;28;20133;-52
2023/01/18 13:54:22;;;;;;;7.30;3.25;;;3.40;99.90;;;;;;5056359;28;20049;-52
2023/01/18 13:57:00;;;;;;;10.75;4.25;;;3.50;99.90;;;;;;5054985;28;20409;-52
2023/01/18 13:59:43;;;;;;;9.27;3.75;;;3.30;99.90;;;;;;5056257;28;20129;-51
2023/01/18 14:02:27;;;;;;;10.50;3.25;;;3.40;99.90;;;;;;5054932;28;20076;-52
2023/01/18 14:05:07;;;;;;;7.68;3.83;;;3.30;99.90;;;;;;5053455;28;20036;-50
2023/01/18 14:07:46;;;;;;;11.25;3.55;;;3.50;99.90;;;;;;5055710;28;20041;-52
2023/01/18 14:10:24;;;;;;;8.13;3.58;;;3.40;99.90;;;;;;5054721;28;20041;-48
2023/01/18 14:12:52;;;;;;;8.55;3.55;;;3.50;99.90;;;;;;5053697;28;20410;-51
2023/01/18 14:15:37;;;;;;;6.40;3.05;;;3.50;99.90;;;;;;5054440;28;20449;-50
2023/01/18 14:18:15;;;;;;;7.70;3.30;;;3.40;99.90;;;;;;5053656;28;20048;-48
2023/01/18 14:20:46;;;;;;;10.13;3.85;;;3.40;99.90;;;;;;5054258;28;20543;-51
2023/01/18 14:23:12;;;;;;;7.88;3.50;;;;;;;;;;5053664;28;20464;-51
2023/01/18 14:26:03;;;;;;;8.77;3.60;;;3.40;99.90;;;;;;5052628;28;20036;-49
2023/01/18 14:28:49;;;;;;;9.27;4.13;;;4.30;99.90;;;;;;5053256;28;20404;-52
2023/01/18 14:31:30;;;;;;;6.50;3.10;;;5.50;99.90;;;;;;5053314;28;20185;-50
2023/01/18 14:33:56;;;;;;;10.90;4.18;;;;;;;;;;5053850;28;20074;-51
2023/01/18 14:36:26;;;;;;;10.18;3.88;;;3.80;99.90;;;;;;5053027;28;20040;-50
2023/01/18 14:39:17;;;;;;;12.68;3.72;;;3.60;99.90;;;;;;5053419;28;20098;-49
2023/01/18 14:42:11;;;;;;;9.10;3.65;;;3.70;99.90;;;;;;5051518;28;20040;-49
2023/01/18 14:44:42;;;;;;;7.53;3.03;;;3.50;99.90;;;;;;5052985;28;20118;-50
2023/01/18 14:47:19;;;;;;;8.70;3.83;;;3.50;99.90;;;;;;5053775;28;20048;-52
2023/01/18 14:49:45;;;;;;;8.25;3.75;;;3.50;99.90;;;;;;5053034;28;20048;-50
2023/01/18 14:52:17;;;;;;;7.90;3.05;;;3.40;99.90;;;;;;5052013;28;20040;-52
2023/01/18 14:54:51;;;;;;;8.80;3.65;;;3.40;99.90;;;;;;5050725;28;20060;-51